メインページ
METAR-TAF:

METAR-TAF

空港 :

成都, 中華人民共和国

成都双流国際空港

緯度: 30-40N, 経度: 104-01E, 海抜: 508m

現時点の気象観測

当レポートは22分前の17:00(UTC)に作成
南/南西の風 4kt
気温 9°C
湿度 87%
気圧 1027 hPa
視程10km以上
高度4000ftの雲は散在している

METAR: ZUUU 251700Z 20002MPS 9999 SCT040 09/07 Q1027 NOSIG

時間: 01:22 (17:22 UTC)

予報

当レポートは9時間18分前の08:04(UTC)に作成
予報は25日の 12時(UTC)から 26日の 12時(UTC)まで有効
南西の風 6kt
視程: 6000m
高度5000ftの雲は散在している

TAF: ZUUU 250804Z 2512/2612 22003MPS 6000 SCT050 TX20/2607Z TN09/2523Z

4,000以上の空港の気象観測と天気予報(METAR報とTAF報)

利用可能な観測所は地図上に黄色い丸と赤い丸で示す。

丸の上にカーソルを重ねると観測所名を参照できる。

次にクリックすると気象観測と天気予報を参照できる。

マップの切り替え:黒色「×」印の緑ボタンをクリックして拡大、「-」印の緑ボタンをクリックして縮小、緑色の三角印をクリックして隣りの地図に切り替え


METAR-TAF: